createdAt,value
2023-03-20T00:01:21.666Z,99949.09
2023-03-20T00:03:50.431Z,99954.22
2023-03-20T00:06:21.679Z,99950.50
2023-03-20T00:08:50.482Z,99950.84
2023-03-20T00:11:36.430Z,99958.63
2023-03-20T00:14:11.271Z,99950.72
2023-03-20T00:16:40.543Z,99951.88
2023-03-20T00:19:23.335Z,99957.56
2023-03-20T00:21:51.491Z,99961.03
2023-03-20T00:24:18.167Z,99961.84
2023-03-20T00:26:46.338Z,99966.50
2023-03-20T00:29:22.661Z,99962.78
2023-03-20T00:31:49.917Z,99964.88
2023-03-20T00:34:19.274Z,99962.09
2023-03-20T00:36:46.424Z,99966.50
2023-03-20T00:39:13.817Z,99966.97
2023-03-20T00:42:08.117Z,99956.19
2023-03-20T00:44:48.543Z,99952.59
2023-03-20T00:47:21.306Z,99952.13
2023-03-20T00:49:50.204Z,99947.03
2023-03-20T00:52:18.668Z,99962.09
2023-03-20T00:54:46.844Z,99964.88
2023-03-20T00:57:20.691Z,99968.47
2023-03-20T01:00:05.275Z,99948.75
2023-03-20T01:02:33.143Z,99950.97
2023-03-20T01:05:00.561Z,99947.03
2023-03-20T01:07:27.777Z,99951.06
2023-03-20T01:09:54.253Z,99953.06
2023-03-20T01:12:21.329Z,99953.06
2023-03-20T01:14:52.245Z,99949.81
2023-03-20T01:17:21.039Z,99948.53
2023-03-20T01:19:47.959Z,99953.28
2023-03-20T01:22:14.840Z,99943.66
2023-03-20T01:24:42.085Z,99943.66
2023-03-20T01:27:14.717Z,99948.78
2023-03-20T01:29:42.132Z,99954.56
2023-03-20T01:32:13.869Z,99946.22
2023-03-20T01:34:40.722Z,99955.63
2023-03-20T01:37:13.422Z,99953.66
2023-03-20T01:39:40.233Z,99954.00
2023-03-20T01:42:07.302Z,99952.38
2023-03-20T01:44:36.011Z,99949.94
2023-03-20T01:47:06.378Z,99950.75
2023-03-20T01:50:10.778Z,99955.72
2023-03-20T01:52:37.350Z,99952.03
2023-03-20T01:55:04.225Z,99957.00
2023-03-20T01:57:30.952Z,99949.47
2023-03-20T02:00:11.903Z,99949.81
2023-03-20T02:02:39.737Z,99949.94
2023-03-20T02:05:10.564Z,99952.59
2023-03-20T02:07:38.301Z,99953.28
2023-03-20T02:10:13.705Z,99952.13
2023-03-20T02:12:41.360Z,99952.59
2023-03-20T02:15:09.928Z,99949.94
2023-03-20T02:17:36.497Z,99946.56
2023-03-20T02:20:06.054Z,99960.00
2023-03-20T02:22:54.802Z,99953.88
2023-03-20T02:25:44.229Z,99953.53
2023-03-20T02:28:37.801Z,99956.53
2023-03-20T02:31:28.679Z,99945.19
2023-03-20T02:34:27.440Z,99951.56
2023-03-20T02:37:24.654Z,99951.66
2023-03-20T02:39:54.116Z,99949.47
2023-03-20T02:42:33.274Z,99954.34
2023-03-20T02:45:22.194Z,99947.63
2023-03-20T02:47:54.721Z,99953.06
2023-03-20T02:50:32.168Z,99957.22
2023-03-20T02:53:18.798Z,99954.09
2023-03-20T02:55:55.789Z,99954.69
2023-03-20T02:58:30.972Z,99954.91
2023-03-20T03:00:58.107Z,99957.22
2023-03-20T03:03:32.184Z,99960.72
2023-03-20T03:06:02.022Z,99958.63
2023-03-20T03:08:32.407Z,99959.78
2023-03-20T03:11:03.423Z,99952.94
2023-03-20T03:13:32.644Z,99951.91
2023-03-20T03:16:07.298Z,99951.22
2023-03-20T03:18:35.968Z,99958.41
2023-03-20T03:21:04.164Z,99942.06
2023-03-20T03:23:39.196Z,99955.03
2023-03-20T03:26:08.088Z,99947.72
2023-03-20T03:28:43.695Z,99950.06
2023-03-20T03:31:13.718Z,99954.69
2023-03-20T03:33:41.508Z,99946.78
2023-03-20T03:36:46.524Z,99939.97
2023-03-20T03:39:52.409Z,99942.16
2023-03-20T03:42:33.700Z,99953.88
2023-03-20T03:45:07.588Z,99949.81
2023-03-20T03:47:55.860Z,99954.44
2023-03-20T03:50:31.584Z,99955.94
2023-03-20T03:53:01.460Z,99946.78
2023-03-20T03:55:32.401Z,99944.59
2023-03-20T03:58:02.103Z,99943.78
2023-03-20T04:00:28.765Z,99951.56
2023-03-20T04:02:57.668Z,99947.16
2023-03-20T04:05:25.603Z,99944.38
2023-03-20T04:07:56.885Z,99938.94
2023-03-20T04:10:23.436Z,99940.56
2023-03-20T04:12:49.958Z,99935.22
2023-03-20T04:15:16.984Z,99948.66
2023-03-20T04:17:44.417Z,99951.19
2023-03-20T04:20:12.508Z,99950.75
2023-03-20T04:22:39.623Z,99964.41
2023-03-20T04:25:07.910Z,99962.78
2023-03-20T04:27:34.480Z,99964.19
2023-03-20T04:30:00.917Z,99961.28
2023-03-20T04:32:27.407Z,99967.44
2023-03-20T04:34:53.864Z,99964.31
2023-03-20T04:37:20.416Z,99958.63
2023-03-20T04:39:47.669Z,99954.69
2023-03-20T04:42:14.202Z,99963.38
2023-03-20T04:44:40.758Z,99960.00
2023-03-20T04:47:07.208Z,99960.13
2023-03-20T04:49:33.801Z,99962.66
2023-03-20T04:52:00.369Z,99960.22
2023-03-20T04:54:26.885Z,99967.03
2023-03-20T04:56:53.367Z,99967.19
2023-03-20T04:59:19.839Z,99974.72
2023-03-20T05:01:46.342Z,99980.41
2023-03-20T05:04:13.305Z,99976.94
2023-03-20T05:06:40.156Z,99979.25
2023-03-20T05:09:06.732Z,99983.31
2023-03-20T05:11:33.339Z,99989.44
2023-03-20T05:13:59.892Z,99987.13
2023-03-20T05:16:26.647Z,99989.91
2023-03-20T05:18:53.229Z,99993.63
2023-03-20T05:21:19.861Z,99994.19
2023-03-20T05:23:46.576Z,99998.38
2023-03-20T05:26:13.038Z,99999.44
2023-03-20T05:28:39.567Z,100012.41
2023-03-20T05:31:06.473Z,99999.75
2023-03-20T05:33:33.161Z,100000.22
2023-03-20T05:35:59.836Z,100009.84
2023-03-20T05:38:27.192Z,100003.56
2023-03-20T05:40:58.818Z,100004.50
2023-03-20T05:43:25.896Z,100013.34
2023-03-20T05:45:53.110Z,100013.91
2023-03-20T05:48:19.838Z,100004.03
2023-03-20T05:50:46.350Z,100012.84
2023-03-20T05:53:12.924Z,100014.84
2023-03-20T05:55:39.608Z,100023.28
2023-03-20T05:58:06.264Z,100020.50
2023-03-20T06:00:33.009Z,100027.44
2023-03-20T06:02:59.523Z,100026.75
2023-03-20T06:05:26.051Z,100031.63
2023-03-20T06:07:52.580Z,100035.56
2023-03-20T06:10:20.744Z,100024.53
2023-03-20T06:12:48.460Z,100026.50
2023-03-20T06:15:15.013Z,100032.28
2023-03-20T06:17:42.224Z,100030.97
2023-03-20T06:20:09.997Z,100039.88
2023-03-20T06:22:36.826Z,100036.00
2023-03-20T06:25:03.432Z,100036.03
2023-03-20T06:27:31.107Z,100039.31
2023-03-20T06:29:57.963Z,100043.59
2023-03-20T06:32:24.543Z,100044.59
2023-03-20T06:34:51.074Z,100044.47
2023-03-20T06:37:19.416Z,100045.50
2023-03-20T06:39:46.027Z,100045.06
2023-03-20T06:42:15.066Z,100038.06
2023-03-20T06:44:42.674Z,100044.56
2023-03-20T06:47:09.555Z,100047.31
2023-03-20T06:49:36.173Z,100047.59
2023-03-20T06:52:02.997Z,100050.78
2023-03-20T06:54:29.718Z,100046.06
2023-03-20T06:56:56.287Z,100043.69
2023-03-20T06:59:23.763Z,100034.91
2023-03-20T07:01:50.694Z,100036.69
2023-03-20T07:04:17.355Z,100031.47
2023-03-20T07:06:43.905Z,100028.34
2023-03-20T07:09:10.498Z,100039.19
2023-03-20T07:11:37.014Z,100038.22
2023-03-20T07:14:03.646Z,100038.72
2023-03-20T07:16:30.160Z,100046.59
2023-03-20T07:18:56.603Z,100042.19
2023-03-20T07:21:23.222Z,100044.78
2023-03-20T07:23:49.819Z,100040.59
2023-03-20T07:26:16.961Z,100048.84
2023-03-20T07:28:43.514Z,100050.28
2023-03-20T07:31:19.206Z,100046.91
2023-03-20T07:33:45.868Z,100056.81
2023-03-20T07:36:12.595Z,100061.34
2023-03-20T07:38:39.081Z,100061.34
2023-03-20T07:41:06.020Z,100060.38
2023-03-20T07:43:32.648Z,100063.41
2023-03-20T07:46:02.471Z,100072.59
2023-03-20T07:48:29.207Z,100072.22
2023-03-20T07:50:55.789Z,100074.97
2023-03-20T07:53:22.483Z,100064.47
2023-03-20T07:55:49.052Z,100073.44
2023-03-20T07:58:16.861Z,100081.25
2023-03-20T08:00:44.013Z,100078.19
2023-03-20T08:03:11.062Z,100078.91
2023-03-20T08:05:38.134Z,100075.75
2023-03-20T08:08:05.715Z,100079.63
2023-03-20T08:10:32.711Z,100077.78
2023-03-20T08:12:59.202Z,100088.47
2023-03-20T08:15:25.896Z,100079.38
2023-03-20T08:17:52.576Z,100080.81
2023-03-20T08:20:19.937Z,100070.25
2023-03-20T08:22:47.142Z,100074.31
2023-03-20T08:25:13.953Z,100075.28
2023-03-20T08:27:40.559Z,100082.16
2023-03-20T08:30:09.002Z,100077.38
2023-03-20T08:32:36.510Z,100077.56
2023-03-20T08:35:03.457Z,100076.31
2023-03-20T08:37:29.877Z,100074.16
2023-03-20T08:39:56.960Z,100066.78
2023-03-20T08:42:23.798Z,100073.16
2023-03-20T08:44:50.563Z,100073.81
2023-03-20T08:47:17.206Z,100074.59
2023-03-20T08:49:44.105Z,100067.69
2023-03-20T08:52:10.803Z,100081.44
2023-03-20T08:54:37.349Z,100079.75
2023-03-20T08:57:04.369Z,100084.25
2023-03-20T08:59:31.385Z,100077.28
2023-03-20T09:01:58.573Z,100075.56
2023-03-20T09:04:25.719Z,100085.06
2023-03-20T09:06:52.960Z,100097.53
2023-03-20T09:09:21.534Z,100096.00
2023-03-20T09:11:48.110Z,100088.75
2023-03-20T09:14:15.163Z,100091.69
2023-03-20T09:16:41.668Z,100099.16
2023-03-20T09:19:08.379Z,100095.88
2023-03-20T09:21:35.048Z,100097.13
2023-03-20T09:24:01.681Z,100089.84
2023-03-20T09:26:28.265Z,100095.47
2023-03-20T09:28:54.845Z,100084.59
2023-03-20T09:31:23.089Z,100087.09
2023-03-20T09:33:50.392Z,100098.69
2023-03-20T09:36:17.048Z,100092.78
2023-03-20T09:38:43.642Z,100095.84
2023-03-20T09:41:28.313Z,100099.00
2023-03-20T09:44:08.448Z,100112.81
2023-03-20T09:46:56.846Z,100108.34
2023-03-20T09:49:39.682Z,100103.53
2023-03-20T09:52:28.787Z,100114.84
2023-03-20T09:54:58.244Z,100105.81
2023-03-20T09:57:41.949Z,100115.63
2023-03-20T10:00:16.412Z,100121.75
2023-03-20T10:02:52.627Z,100125.50
2023-03-20T10:05:31.341Z,100122.09
2023-03-20T10:08:07.088Z,100122.97
2023-03-20T10:10:46.724Z,100120.16
2023-03-20T10:13:37.538Z,100127.91
2023-03-20T10:16:32.779Z,100121.19
2023-03-20T10:19:05.581Z,100123.38
2023-03-20T10:21:39.530Z,100119.94
2023-03-20T10:24:19.487Z,100115.59
2023-03-20T10:26:51.018Z,100118.84
2023-03-20T10:29:55.302Z,100119.34
2023-03-20T10:32:33.278Z,100113.75
2023-03-20T10:35:21.383Z,100123.06
2023-03-20T10:38:09.890Z,100110.13
2023-03-20T10:40:39.478Z,100121.53
2023-03-20T10:43:19.112Z,100113.56
2023-03-20T10:46:04.819Z,100117.44
2023-03-20T10:48:36.981Z,100111.59
2023-03-20T10:51:04.664Z,100110.69
2023-03-20T10:53:31.876Z,100114.94
2023-03-20T10:56:11.793Z,100113.94
2023-03-20T10:58:41.062Z,100120.56
2023-03-20T11:01:08.112Z,100117.13
2023-03-20T11:03:38.967Z,100117.25
2023-03-20T11:06:12.091Z,100114.50
2023-03-20T11:08:43.388Z,100113.66
2023-03-20T11:11:10.294Z,100122.66
2023-03-20T11:13:41.704Z,100125.94
2023-03-20T11:16:33.093Z,100121.59
2023-03-20T11:19:07.078Z,100127.66
2023-03-20T11:21:36.180Z,100130.72
2023-03-20T11:24:04.066Z,100120.91
2023-03-20T11:26:39.293Z,100125.50
2023-03-20T11:29:08.193Z,100126.41
2023-03-20T11:31:41.038Z,100123.41
2023-03-20T11:34:07.628Z,100121.97
2023-03-20T11:36:36.721Z,100105.75
2023-03-20T11:39:06.394Z,100103.00
2023-03-20T11:41:33.206Z,100103.56
2023-03-20T11:43:59.735Z,100092.03
2023-03-20T11:46:26.981Z,100095.75
2023-03-20T11:49:06.579Z,100091.25
2023-03-20T11:51:35.291Z,100095.78
2023-03-20T11:54:06.029Z,100090.56
2023-03-20T11:56:34.261Z,100088.34
2023-03-20T11:59:14.775Z,100094.06
2023-03-20T12:01:48.928Z,100074.63
2023-03-20T12:04:42.055Z,100082.78
2023-03-20T12:07:13.285Z,100083.88
2023-03-20T12:09:47.854Z,100079.44
2023-03-20T12:12:23.314Z,100087.88
2023-03-20T12:15:12.957Z,100084.56
2023-03-20T12:17:58.300Z,100075.81
2023-03-20T12:20:46.136Z,100080.91
2023-03-20T12:23:15.270Z,100078.13
2023-03-20T12:26:04.133Z,100074.56
2023-03-20T12:28:38.581Z,100069.69
2023-03-20T12:31:25.425Z,100073.72
2023-03-20T12:33:57.257Z,100064.50
2023-03-20T12:36:36.013Z,100067.44
2023-03-20T12:39:06.527Z,100071.63
2023-03-20T12:41:40.265Z,100073.50
2023-03-20T12:44:22.118Z,100067.16
2023-03-20T12:47:18.515Z,100062.91
2023-03-20T12:50:00.648Z,100069.50
2023-03-20T12:52:46.532Z,100059.66
2023-03-20T12:55:38.965Z,100063.38
2023-03-20T12:58:43.592Z,100051.34
2023-03-20T13:01:19.458Z,100057.91
2023-03-20T13:04:10.943Z,100052.66
2023-03-20T13:06:43.531Z,100052.03
2023-03-20T13:09:28.139Z,100052.13
2023-03-20T13:12:10.770Z,100045.09
2023-03-20T13:14:37.244Z,100036.31
2023-03-20T13:17:42.268Z,100039.13
2023-03-20T13:20:37.107Z,100040.19
2023-03-20T13:23:25.572Z,100030.75
2023-03-20T13:26:04.157Z,100027.50
2023-03-20T13:28:42.045Z,100031.47
2023-03-20T13:31:30.901Z,100024.31
2023-03-20T13:34:12.821Z,100022.78
2023-03-20T13:36:45.255Z,100023.00
2023-03-20T13:39:18.426Z,100018.63
2023-03-20T13:41:46.945Z,100024.22
2023-03-20T13:44:15.216Z,100017.03
2023-03-20T13:46:46.688Z,100017.09
2023-03-20T13:49:31.192Z,100013.69
2023-03-20T13:52:29.345Z,100014.16
2023-03-20T13:55:11.509Z,100020.59
2023-03-20T13:58:17.276Z,100021.38
2023-03-20T14:01:29.593Z,100020.75
2023-03-20T14:03:56.625Z,100013.94
2023-03-20T14:06:23.347Z,100016.50
2023-03-20T14:08:54.004Z,100015.69
2023-03-20T14:11:20.851Z,100017.25
2023-03-20T14:13:59.404Z,100019.94
2023-03-20T14:16:27.959Z,100024.22
2023-03-20T14:19:19.161Z,100015.28
2023-03-20T14:21:52.210Z,100016.00
2023-03-20T14:24:20.383Z,100015.63
2023-03-20T14:26:55.766Z,100025.50
2023-03-20T14:29:33.736Z,100021.41
2023-03-20T14:32:12.374Z,100026.19
2023-03-20T14:34:49.982Z,100026.16
2023-03-20T14:37:35.486Z,100031.66
2023-03-20T14:40:11.404Z,100025.88
2023-03-20T14:43:10.610Z,100021.78
2023-03-20T14:45:45.355Z,100023.75
2023-03-20T14:48:41.656Z,100023.25
2023-03-20T14:51:37.206Z,100016.78
2023-03-20T14:54:22.308Z,100020.13
2023-03-20T14:56:50.526Z,100014.47
2023-03-20T14:59:18.597Z,100012.13
2023-03-20T15:01:48.254Z,100008.63
2023-03-20T15:04:23.755Z,100007.53
2023-03-20T15:07:08.584Z,100009.94
2023-03-20T15:09:37.637Z,100018.50
2023-03-20T15:12:04.601Z,100019.56
2023-03-20T15:14:42.618Z,100021.28
2023-03-20T15:17:36.971Z,100023.53
2023-03-20T15:20:10.969Z,100024.97
2023-03-20T15:22:48.035Z,100026.50
2023-03-20T15:25:23.578Z,100012.91
2023-03-20T15:27:51.875Z,100009.34
2023-03-20T15:30:20.866Z,100020.97
2023-03-20T15:32:49.735Z,100015.38
2023-03-20T15:35:21.309Z,100016.66
2023-03-20T15:37:49.447Z,100009.13
2023-03-20T15:40:32.320Z,100007.84
2023-03-20T15:43:23.025Z,100008.00
2023-03-20T15:45:50.804Z,100001.78
2023-03-20T15:48:19.581Z,99998.63
2023-03-20T15:50:49.571Z,100006.28
2023-03-20T15:53:21.322Z,100009.50
2023-03-20T15:55:56.172Z,100009.13
2023-03-20T15:58:25.797Z,100008.25
2023-03-20T16:00:52.346Z,100011.22
2023-03-20T16:03:21.198Z,100007.41
2023-03-20T16:05:49.789Z,99998.16
2023-03-20T16:08:27.080Z,100006.06
2023-03-20T16:11:17.192Z,100002.13
2023-03-20T16:13:48.159Z,100016.78
2023-03-20T16:16:17.279Z,100007.25
2023-03-20T16:18:46.490Z,100011.31
2023-03-20T16:21:19.071Z,100007.34
2023-03-20T16:23:48.080Z,100006.69
2023-03-20T16:26:17.562Z,100014.69
2023-03-20T16:28:55.462Z,100022.34
2023-03-20T16:31:26.275Z,100020.28
2023-03-20T16:33:52.994Z,100017.38
2023-03-20T16:36:29.584Z,100013.91
2023-03-20T16:39:06.219Z,100011.81
2023-03-20T16:41:34.880Z,100011.25
2023-03-20T16:44:28.824Z,100015.91
2023-03-20T16:47:01.415Z,100015.00
2023-03-20T16:49:34.501Z,100016.22
2023-03-20T16:52:04.346Z,100014.84
2023-03-20T16:54:34.499Z,100014.66
2023-03-20T16:57:04.021Z,100016.41
2023-03-20T16:59:30.651Z,100016.31
2023-03-20T17:02:01.634Z,100009.31
2023-03-20T17:04:39.285Z,100016.22
2023-03-20T17:07:10.271Z,100012.97
2023-03-20T17:09:36.747Z,100014.03
2023-03-20T17:12:18.232Z,100017.25
2023-03-20T17:14:47.903Z,100013.41
2023-03-20T17:17:19.322Z,100010.75
2023-03-20T17:19:46.991Z,100013.06
2023-03-20T17:22:15.645Z,100009.72
2023-03-20T17:24:42.236Z,100009.72
2023-03-20T17:27:11.694Z,100015.16
2023-03-20T17:29:39.570Z,100017.81
2023-03-20T17:32:14.496Z,100013.75
2023-03-20T17:34:41.507Z,100008.41
2023-03-20T17:37:12.647Z,100017.56
2023-03-20T17:39:39.111Z,100026.75
2023-03-20T17:42:19.912Z,100021.03
2023-03-20T17:44:48.098Z,100016.53
2023-03-20T17:47:20.147Z,100015.66
2023-03-20T17:49:46.999Z,100001.94
2023-03-20T17:52:18.206Z,100012.13
2023-03-20T17:54:45.381Z,100011.16
2023-03-20T17:57:26.539Z,100014.66
2023-03-20T17:59:53.031Z,100012.31
2023-03-20T18:02:19.671Z,100006.75
2023-03-20T18:04:46.883Z,100013.75
2023-03-20T18:07:14.063Z,100017.47
2023-03-20T18:09:42.768Z,100013.06
2023-03-20T18:12:15.658Z,100009.47
2023-03-20T18:14:43.374Z,100021.66
2023-03-20T18:17:14.280Z,100014.44
2023-03-20T18:19:41.343Z,100011.44
2023-03-20T18:22:08.530Z,100015.97
2023-03-20T18:24:36.012Z,100011.34
2023-03-20T18:27:03.042Z,100013.88
2023-03-20T18:29:29.820Z,100020.25
2023-03-20T18:31:56.462Z,100020.50
2023-03-20T18:34:23.375Z,100020.50
2023-03-20T18:36:50.034Z,100025.63
2023-03-20T18:39:24.420Z,100024.22
2023-03-20T18:41:51.403Z,100021.78
2023-03-20T18:44:18.186Z,100021.66
2023-03-20T18:46:44.968Z,100017.97
2023-03-20T18:49:16.609Z,100019.59
2023-03-20T18:51:44.249Z,100020.97
2023-03-20T18:54:11.574Z,100024.91
2023-03-20T18:56:38.322Z,100020.50
2023-03-20T18:59:07.832Z,100024.00
2023-03-20T19:01:35.369Z,100022.50
2023-03-20T19:04:02.162Z,100022.50
2023-03-20T19:06:30.149Z,100034.19
2023-03-20T19:08:57.127Z,100029.78
2023-03-20T19:11:23.828Z,100018.44
2023-03-20T19:13:53.935Z,100027.47
2023-03-20T19:16:28.435Z,100018.78
2023-03-20T19:18:58.863Z,100025.97
2023-03-20T19:21:28.381Z,100029.09
2023-03-20T19:23:56.970Z,100012.19
2023-03-20T19:26:25.741Z,100022.16
2023-03-20T19:28:53.526Z,100020.75
2023-03-20T19:31:20.343Z,100022.72
2023-03-20T19:33:46.966Z,100024.25
2023-03-20T19:36:24.451Z,100003.22
2023-03-20T19:38:52.379Z,100016.94
2023-03-20T19:41:20.190Z,100017.63
2023-03-20T19:43:53.151Z,100015.06
2023-03-20T19:46:38.708Z,100014.84
2023-03-20T19:49:17.797Z,100012.88
2023-03-20T19:51:45.257Z,100015.66
2023-03-20T19:54:11.683Z,100016.69
2023-03-20T19:56:38.247Z,100023.28
2023-03-20T19:59:05.943Z,100011.94
2023-03-20T20:01:32.491Z,100001.84
2023-03-20T20:03:59.068Z,100003.94
2023-03-20T20:06:31.035Z,100002.84
2023-03-20T20:08:59.436Z,100010.47
2023-03-20T20:11:26.323Z,100000.38
2023-03-20T20:14:10.028Z,100004.19
2023-03-20T20:16:39.675Z,100011.00
2023-03-20T20:19:06.913Z,100003.75
2023-03-20T20:24:20.229Z,100007.50
2023-03-20T20:27:03.189Z,99996.41
2023-03-20T20:29:37.459Z,99997.06
2023-03-20T20:32:04.425Z,100004.00
2023-03-20T20:38:09.126Z,99998.19
2023-03-20T20:40:06.064Z,99999.72
2023-03-20T20:42:32.740Z,99998.38
2023-03-20T20:44:59.349Z,99997.28
2023-03-20T20:47:25.900Z,99994.44
2023-03-20T20:49:52.426Z,99987.50
2023-03-20T20:52:19.126Z,99986.94
2023-03-20T20:54:45.654Z,99996.22
2023-03-20T20:57:12.398Z,99998.31
2023-03-20T20:59:40.379Z,99997.97
2023-03-20T21:02:12.295Z,99991.75
2023-03-20T21:04:40.278Z,99994.31
2023-03-20T21:07:10.250Z,99997.31
2023-03-20T21:09:37.668Z,99997.56
2023-03-20T21:12:04.814Z,99999.41
2023-03-20T21:14:31.428Z,100005.78
2023-03-20T21:17:01.822Z,100011.34
2023-03-20T21:19:49.709Z,100010.88
2023-03-20T21:22:17.043Z,100008.09
2023-03-20T21:24:43.868Z,100003.81
2023-03-20T21:27:13.794Z,100005.44
2023-03-20T21:29:41.493Z,100010.53
2023-03-20T21:32:10.898Z,100017.22
2023-03-20T21:34:38.461Z,100014.13
2023-03-20T21:38:04.640Z,100011.00
2023-03-20T21:39:52.657Z,100014.59
2023-03-20T21:42:19.307Z,100007.88
2023-03-20T21:45:34.484Z,100011.13
2023-03-20T21:48:24.564Z,100007.44
2023-03-20T21:53:49.580Z,100006.75
2023-03-20T21:56:41.720Z,100012.78
2023-03-20T21:59:27.065Z,100004.44
2023-03-20T22:01:58.740Z,100018.56
2023-03-20T22:13:21.707Z,100014.75
2023-03-20T22:16:01.980Z,100025.25
2023-03-20T22:24:45.200Z,100032.22
2023-03-20T22:30:02.619Z,100038.03
2023-03-20T22:32:52.086Z,100036.97
2023-03-20T22:35:41.776Z,100031.75
2023-03-20T22:41:18.303Z,100039.66
2023-03-20T22:46:36.082Z,100034.78
2023-03-20T22:48:48.748Z,100039.66
2023-03-20T22:51:16.500Z,100038.72
2023-03-20T22:53:44.836Z,100028.66
2023-03-20T22:56:12.868Z,100025.66
2023-03-20T22:58:39.493Z,100023.56
2023-03-20T23:01:08.276Z,100023.56
2023-03-20T23:03:41.526Z,100024.84
2023-03-20T23:06:20.174Z,100016.50
2023-03-20T23:08:53.942Z,100015.56
2023-03-20T23:11:23.322Z,100020.31
2023-03-20T23:13:50.134Z,100019.03
2023-03-20T23:16:16.866Z,100019.75
2023-03-20T23:18:44.417Z,100018.00
2023-03-20T23:21:13.160Z,100026.00
2023-03-20T23:23:39.689Z,100021.25
2023-03-20T23:26:10.587Z,100022.28
2023-03-20T23:28:37.911Z,100030.41
2023-03-20T23:31:10.386Z,100021.72
2023-03-20T23:33:38.814Z,100023.69
2023-03-20T23:36:18.599Z,100023.00
2023-03-20T23:38:48.313Z,100021.84
2023-03-20T23:41:15.765Z,100022.88
2023-03-20T23:43:42.858Z,100024.84
2023-03-20T23:46:09.390Z,100017.66
2023-03-20T23:48:36.439Z,100012.09
2023-03-20T23:51:03.594Z,100018.34
2023-03-20T23:53:30.260Z,100020.44
2023-03-20T23:55:57.274Z,100012.78
2023-03-20T23:58:25.584Z,100007.81
